createdAt,value
2022-07-31T00:02:12.309Z,1019.71
2022-07-31T00:11:49.381Z,1019.78
2022-07-31T00:21:26.750Z,1019.73
2022-07-31T00:31:04.207Z,1019.75
2022-07-31T00:40:41.432Z,1019.66
2022-07-31T00:50:18.693Z,1019.66
2022-07-31T00:59:55.787Z,1019.68
2022-07-31T01:09:32.853Z,1019.66
2022-07-31T01:19:10.054Z,1019.7
2022-07-31T01:28:47.278Z,1019.74
2022-07-31T01:38:24.574Z,1019.79
2022-07-31T01:48:01.465Z,1019.82
2022-07-31T01:57:38.410Z,1019.77
2022-07-31T02:07:15.544Z,1019.79
2022-07-31T02:26:29.752Z,1019.71
2022-07-31T02:36:06.918Z,1019.73
2022-07-31T02:45:44.093Z,1019.66
2022-07-31T02:55:21.111Z,1019.62
2022-07-31T03:04:58.364Z,1019.6
2022-07-31T03:14:35.697Z,1019.55
2022-07-31T03:24:12.663Z,1019.42
2022-07-31T03:33:49.654Z,1019.49
2022-07-31T03:43:26.117Z,1019.44
2022-07-31T03:53:03.291Z,1019.37
2022-07-31T04:02:40.659Z,1019.46
2022-07-31T04:21:55.949Z,1019.46
2022-07-31T04:31:34.033Z,1019.44
2022-07-31T04:41:11.876Z,1019.45
2022-07-31T04:50:49.526Z,1019.48
2022-07-31T05:00:27.129Z,1019.47
2022-07-31T05:10:04.683Z,1019.51
2022-07-31T05:19:42.192Z,1019.59
2022-07-31T05:29:19.717Z,1019.47
2022-07-31T05:38:57.245Z,1019.48
2022-07-31T05:48:35.004Z,1019.55
2022-07-31T05:58:16.740Z,1019.62
2022-07-31T06:07:52.236Z,1019.66
2022-07-31T06:17:40.477Z,1019.66
2022-07-31T06:27:08.635Z,1019.71
2022-07-31T06:36:45.961Z,1019.63
2022-07-31T06:46:24.201Z,1019.53
2022-07-31T06:56:03.107Z,1019.48
2022-07-31T07:05:45.140Z,1019.39
2022-07-31T07:15:20.258Z,1019.23
2022-07-31T07:24:58.524Z,1019.19
2022-07-31T07:34:35.091Z,1019.13
2022-07-31T07:44:11.004Z,1018.98
2022-07-31T07:53:47.859Z,1018.8
2022-07-31T08:03:47.770Z,1018.65
2022-07-31T08:42:10.221Z,1018.1
2022-07-31T08:51:50.462Z,1017.91
2022-07-31T09:01:28.413Z,1017.79
2022-07-31T09:11:06.399Z,1017.85
2022-07-31T09:30:19.073Z,1017.58
2022-07-31T09:40:07.910Z,1017.47
2022-07-31T09:49:49.318Z,1017.34
2022-07-31T09:59:26.556Z,1017.28
2022-07-31T10:09:05.292Z,1017.13
2022-07-31T10:18:44.472Z,1017.16
2022-07-31T10:28:27.030Z,1016.91
2022-07-31T10:38:02.057Z,1016.62
2022-07-31T10:47:40.910Z,1016.6
2022-07-31T10:57:24.609Z,1016.51
2022-07-31T11:07:07.839Z,1016.2
2022-07-31T11:16:51.871Z,1016.18
2022-07-31T11:26:41.145Z,1016.01
2022-07-31T11:35:59.338Z,1015.98
2022-07-31T11:45:40.954Z,1015.84
2022-07-31T11:55:24.741Z,1015.72
2022-07-31T12:05:08.263Z,1015.55
2022-07-31T12:24:07.451Z,1015.49
2022-07-31T12:33:40.371Z,1015.4
2022-07-31T12:43:32.091Z,1015.09
2022-07-31T12:52:58.019Z,1015.22
2022-07-31T13:02:37.494Z,1015
2022-07-31T13:12:09.294Z,1015
2022-07-31T13:21:48.751Z,1014.94
2022-07-31T13:31:16.523Z,1014.87
2022-07-31T13:40:52.731Z,1014.74
2022-07-31T13:50:42.641Z,1014.56
2022-07-31T14:00:19.029Z,1014.47
2022-07-31T14:10:10.685Z,1014.38
2022-07-31T14:19:39.471Z,1014.61
2022-07-31T14:29:11.391Z,1014.53
2022-07-31T14:38:48.919Z,1014.5
2022-07-31T14:48:27.518Z,1014.49
2022-07-31T14:58:09.081Z,1014.4
2022-07-31T15:17:22.006Z,1014.31
2022-07-31T15:26:55.371Z,1014.31
2022-07-31T15:36:30.611Z,1014.31
2022-07-31T15:46:07.147Z,1014.32
2022-07-31T15:55:43.517Z,1014.4
2022-07-31T16:05:21.881Z,1014.51
2022-07-31T16:14:57.718Z,1014.46
2022-07-31T16:24:35.406Z,1014.37
2022-07-31T16:34:13.481Z,1014.34
2022-07-31T16:43:51.864Z,1014.3
2022-07-31T16:54:11.751Z,1014.23
2022-07-31T17:03:04.950Z,1014.15
2022-07-31T17:12:42.841Z,1014.2
2022-07-31T17:22:19.995Z,1014.3
2022-07-31T17:31:55.977Z,1014.36
2022-07-31T17:51:07.517Z,1014.28
2022-07-31T18:00:44.041Z,1014.32
2022-07-31T18:10:27.929Z,1014.4
2022-07-31T18:19:58.353Z,1014.36
2022-07-31T18:29:34.976Z,1014.63
2022-07-31T18:39:11.401Z,1014.51
2022-07-31T18:48:54.627Z,1014.79
2022-07-31T18:58:25.942Z,1014.85
2022-07-31T19:08:01.439Z,1014.73
2022-07-31T19:17:44.293Z,1014.71
2022-07-31T19:27:15.647Z,1014.71
2022-07-31T19:36:53.493Z,1014.82
2022-07-31T19:46:29.357Z,1014.81
2022-07-31T19:56:06.799Z,1014.82
2022-07-31T20:05:43.807Z,1014.84
2022-07-31T20:15:20.900Z,1014.81
2022-07-31T20:34:35.882Z,1014.98
2022-07-31T20:44:12.999Z,1015.02
2022-07-31T21:03:28.516Z,1015.11
2022-07-31T21:13:06.099Z,1015
2022-07-31T21:22:43.501Z,1014.88
2022-07-31T21:32:20.573Z,1014.84
2022-07-31T21:41:57.935Z,1014.84
2022-07-31T21:51:34.930Z,1014.92
2022-07-31T22:01:11.922Z,1014.96
2022-07-31T22:10:48.860Z,1014.94
2022-07-31T22:20:26.002Z,1014.98
2022-07-31T22:30:02.825Z,1014.96
2022-07-31T22:49:16.575Z,1015.1
2022-07-31T22:58:53.677Z,1015.05
2022-07-31T23:08:30.541Z,1015.15
2022-07-31T23:18:07.329Z,1015.05
2022-07-31T23:27:44.652Z,1015.12
2022-07-31T23:37:22.188Z,1015.13
2022-07-31T23:46:59.988Z,1015.2
2022-07-31T23:56:37.761Z,1015.13
